Latest Weather Observations for Thevenard

IDS60801

Issued at 6:35 pm CST Saturday 23 August 2014 (issued every 30 minutes, with the page automatically refreshed every 10 minutes)

About weather observations | Map of weather stations | Latest weather observations for SA | Other Formats
Station Details ID: 018200 Name: THEVENARD WIND Lat: -32.18 Lon: 133.63 Height: 8.85 m
Data from the previous 72 hours. | See also: Recent months for locations in South Australia
Date/Time
CST
Temp
°C
App
Temp
°C
Dew
Point
Rel
Hum
%
Delta-T
°C
Wind Press
QNH
hPa
Press
MSL
hPa
Rain
since 9 am
mm
Dir
 
Spd
km/h
Gust
km/h
Spd
kts
Gust
kts
23/06:30pm - - - - - S 22 26 12 14 - - -
23/06:00pm - - - - - S 26 30 14 16 - - -
23/05:30pm - - - - - S 24 28 13 15 - - -
23/05:00pm - - - - - S 20 24 11 13 - - -
23/04:30pm - - - - - S 22 24 12 13 - - -
23/04:00pm - - - - - S 19 24 10 13 - - -
23/03:30pm - - - - - S 19 22 10 12 - - -
23/03:00pm - - - - - S 17 20 9 11 - - -
23/02:30pm - - - - - S 19 20 10 11 - - -
23/02:00pm - - - - - S 19 20 10 11 - - -
23/01:30pm - - - - - S 20 24 11 13 - - -
23/01:00pm - - - - - S 20 26 11 14 - - -
23/12:30pm - - - - - S 22 28 12 15 - - -
23/12:00pm - - - - - S 20 24 11 13 - - -
23/11:30am - - - - - S 22 24 12 13 - - -
23/11:00am - - - - - S 22 28 12 15 - - -
23/10:30am - - - - - S 24 28 13 15 - - -
23/10:00am - - - - - S 24 30 13 16 - - -
23/09:30am - - - - - S 28 35 15 19 - - -
23/09:00am - - - - - SSW 24 30 13 16 - - -
23/08:30am - - - - - SSW 20 24 11 13 - - -
23/08:00am - - - - - SSW 22 33 12 18 - - -
23/07:30am - - - - - SSW 19 22 10 12 - - -
23/07:00am - - - - - SW 17 19 9 10 - - -
23/06:30am - - - - - SW 19 20 10 11 - - -
23/06:00am - - - - - SW 13 17 7 9 - - -
23/05:30am - - - - - WSW 9 11 5 6 - - -
23/05:00am - - - - - SW 9 11 5 6 - - -
23/04:30am - - - - - W 4 6 2 3 - - -
23/04:00am - - - - - WNW 4 6 2 3 - - -
23/03:30am - - - - - NW 2 4 1 2 - - -
23/03:00am - - - - - SW 6 9 3 5 - - -
23/02:30am - - - - - WSW 15 17 8 9 - - -
23/02:00am - - - - - WSW 15 19 8 10 - - -
23/01:30am - - - - - WSW 24 30 13 16 - - -
23/01:00am - - - - - WSW 24 30 13 16 - - -
23/12:30am - - - - - W 20 26 11 14 - - -
23/12:00am - - - - - W 24 28 13 15 - - -
 
Date/Time
CST
Temp
°C
App
Temp
°C
Dew
Point
Rel
Hum
%
Delta-T
°C
Wind Press
QNH
hPa
Press
MSL
hPa
Rain
since 9 am
mm
Dir
 
Spd
km/h
Gust
km/h
Spd
kts
Gust
kts
22/11:30pm - - - - - W 24 30 13 16 - - -
22/11:00pm - - - - - WSW 30 33 16 18 - - -
22/10:30pm - - - - - W 22 30 12 16 - - -
22/10:00pm - - - - - N 19 20 10 11 - - -
22/09:30pm - - - - - NNW 17 20 9 11 - - -
22/09:00pm - - - - - W 17 24 9 13 - - -
22/08:30pm - - - - - NE 20 22 11 12 - - -
22/08:00pm - - - - - NE 24 24 13 13 - - -
22/07:30pm - - - - - NE 22 30 12 16 - - -
22/07:00pm - - - - - NE 22 24 12 13 - - -
22/06:30pm - - - - - NNE 24 28 13 15 - - -
22/06:00pm - - - - - NNE 22 26 12 14 - - -
22/05:30pm - - - - - NNE 28 32 15 17 - - -
22/05:00pm - - - - - NNE 30 37 16 20 - - -
22/04:30pm - - - - - NNE 33 41 18 22 - - -
22/04:00pm - - - - - NNE 32 39 17 21 - - -
22/03:30pm - - - - - NNE 35 43 19 23 - - -
22/03:00pm - - - - - NNE 37 46 20 25 - - -
22/02:30pm - - - - - NNE 35 48 19 26 - - -
22/02:00pm - - - - - NNE 35 43 19 23 - - -
22/01:30pm - - - - - NNE 33 41 18 22 - - -
22/01:00pm - - - - - NNE 37 43 20 23 - - -
22/12:30pm - - - - - NNE 33 41 18 22 - - -
22/12:00pm - - - - - NNE 37 44 20 24 - - -
22/11:30am - - - - - NNE 33 46 18 25 - - -
22/11:00am - - - - - NNE 35 44 19 24 - - -
22/10:30am - - - - - NNE 41 52 22 28 - - -
22/10:00am - - - - - NNE 30 39 16 21 - - -
22/09:30am - - - - - NNE 33 41 18 22 - - -
22/09:00am - - - - - NNE 35 43 19 23 - - -
22/08:30am - - - - - NNE 35 46 19 25 - - -
22/08:00am - - - - - NNE 35 48 19 26 - - -
22/07:30am - - - - - NNE 35 44 19 24 - - -
22/07:00am - - - - - NNE 33 41 18 22 - - -
22/06:30am - - - - - NNE 33 41 18 22 - - -
22/06:00am - - - - - NNE 32 39 17 21 - - -
22/05:30am - - - - - NNE 26 37 14 20 - - -
22/05:00am - - - - - NNE 24 32 13 17 - - -
22/04:30am - - - - - NNE 30 39 16 21 - - -
22/04:00am - - - - - NNE 30 37 16 20 - - -
22/03:30am - - - - - NNE 28 35 15 19 - - -
22/03:00am - - - - - NNE 28 33 15 18 - - -
22/02:30am - - - - - NNE 30 35 16 19 - - -
22/02:00am - - - - - NE 24 30 13 16 - - -
22/01:30am - - - - - NE 19 22 10 12 - - -
22/01:00am - - - - - NE 26 32 14 17 - - -
22/12:30am - - - - - ENE 24 28 13 15 - - -
22/12:00am - - - - - ENE 22 24 12 13 - - -
 
Date/Time
CST
Temp
°C
App
Temp
°C
Dew
Point
Rel
Hum
%
Delta-T
°C
Wind Press
QNH
hPa
Press
MSL
hPa
Rain
since 9 am
mm
Dir
 
Spd
km/h
Gust
km/h
Spd
kts
Gust
kts
21/11:30pm - - - - - ENE 22 26 12 14 - - -
21/11:00pm - - - - - NE 20 24 11 13 - - -
21/10:30pm - - - - - NE 19 20 10 11 - - -
21/10:00pm - - - - - ENE 19 22 10 12 - - -
21/09:30pm - - - - - ENE 17 19 9 10 - - -
21/09:00pm - - - - - ENE 17 20 9 11 - - -
21/08:30pm - - - - - ENE 20 22 11 12 - - -
21/08:00pm - - - - - ENE 15 17 8 9 - - -
21/07:30pm - - - - - ENE 15 17 8 9 - - -
21/07:00pm - - - - - ENE 13 15 7 8 - - -
21/06:30pm - - - - - ENE 17 19 9 10 - - -
21/06:00pm - - - - - NE 17 22 9 12 - - -
21/05:30pm - - - - - NE 17 20 9 11 - - -
21/05:00pm - - - - - NE 19 22 10 12 - - -
21/04:30pm - - - - - NE 19 22 10 12 - - -
21/04:00pm - - - - - NE 19 22 10 12 - - -
21/03:30pm - - - - - NE 15 20 8 11 - - -
21/03:00pm - - - - - NNE 11 13 6 7 - - -
21/02:30pm - - - - - NNE 7 11 4 6 - - -
21/02:00pm - - - - - NNE 15 19 8 10 - - -
21/01:30pm - - - - - NNE 13 17 7 9 - - -
21/01:00pm - - - - - NNE 17 20 9 11 - - -
21/12:30pm - - - - - NNE 19 22 10 12 - - -
21/12:00pm - - - - - NNE 20 26 11 14 - - -
21/11:30am - - - - - NNE 20 24 11 13 - - -
21/11:00am - - - - - NNE 20 28 11 15 - - -
21/10:30am - - - - - NNE 20 24 11 13 - - -
21/10:00am - - - - - NNE 20 24 11 13 - - -
21/09:30am - - - - - NNE 19 22 10 12 - - -
21/09:00am - - - - - NNE 11 15 6 8 - - -
21/08:30am - - - - - NE 19 22 10 12 - - -
21/08:00am - - - - - NE 24 28 13 15 - - -
21/07:30am - - - - - NE 24 30 13 16 - - -
21/07:00am - - - - - NE 28 32 15 17 - - -
21/06:30am - - - - - NE 28 32 15 17 - - -
21/06:00am - - - - - ENE 30 33 16 18 - - -
21/05:30am - - - - - ENE 30 35 16 19 - - -
21/05:00am - - - - - ENE 22 32 12 17 - - -
21/04:30am - - - - - ENE 22 26 12 14 - - -
21/04:00am - - - - - ENE 20 28 11 15 - - -
21/03:30am - - - - - ENE 20 22 11 12 - - -
21/03:00am - - - - - ENE 19 20 10 11 - - -
21/02:30am - - - - - ENE 17 20 9 11 - - -
21/02:00am - - - - - ENE 17 20 9 11 - - -
21/01:30am - - - - - ENE 17 20 9 11 - - -
21/01:00am - - - - - ENE 15 19 8 10 - - -
21/12:30am - - - - - E 19 24 10 13 - - -
21/12:00am - - - - - E 22 28 12 15 - - -
 
Date/Time
CST
Temp
°C
App
Temp
°C
Dew
Point
Rel
Hum
%
Delta-T
°C
Wind Press
QNH
hPa
Press
MSL
hPa
Rain
since 9 am
mm
Dir
 
Spd
km/h
Gust
km/h
Spd
kts
Gust
kts
20/11:30pm - - - - - E 26 32 14 17 - - -
20/11:00pm - - - - - E 26 32 14 17 - - -
20/10:30pm - - - - - ESE 26 30 14 16 - - -
20/10:00pm - - - - - ESE 22 28 12 15 - - -
20/09:30pm - - - - - ESE 26 30 14 16 - - -
20/09:00pm - - - - - ESE 24 32 13 17 - - -
20/08:30pm - - - - - ESE 26 32 14 17 - - -
20/08:00pm - - - - - ESE 22 26 12 14 - - -
20/07:30pm - - - - - SE 19 22 10 12 - - -
20/07:00pm - - - - - SE 26 32 14 17 - - -

Other Formats:

Comma delimited format used in spreadsheet applications
http://www.bom.gov.au/fwo/IDS60801/IDS60801.95653.axf

JavaScript Object Notation format (JSON) in row-major order
http://www.bom.gov.au/fwo/IDS60801/IDS60801.95653.json